Time;durP1;ratioP1;P1;durP2;ratioP2;P2;SDS_P1;SDS_P2;PMS_P1;PMS_P2;Temp;Humidity;BMP_temperature;BMP_pressure;BME280_temperature;BME280_humidity;BME280_pressure;Samples;Min_cycle;Max_cycle;Signal;HPM_P1;HPM_P2
2023/06/17 00:01:05;;;;;;;7.90;3.63;;;18.00;86.90;;;;;;5064277;28;20780;-73
2023/06/17 00:03:31;;;;;;;5.88;2.67;;;17.80;88.20;;;;;;5068858;28;20024;-73
2023/06/17 00:05:56;;;;;;;8.43;3.63;;;17.60;88.30;;;;;;5063728;28;20472;-73
2023/06/17 00:08:22;;;;;;;6.00;3.00;;;17.40;88.60;;;;;;5065500;28;20043;-73
2023/06/17 00:10:48;;;;;;;8.00;3.65;;;17.50;88.80;;;;;;5064174;28;20160;-73
2023/06/17 00:13:18;;;;;;;4.80;2.60;;;17.40;89.20;;;;;;5067798;28;20073;-73
2023/06/17 00:15:47;;;;;;;6.90;2.85;;;17.40;88.30;;;;;;5064880;28;20032;-74
2023/06/17 00:18:14;;;;;;;5.38;3.10;;;17.40;88.30;;;;;;5080283;28;20031;-73
2023/06/17 00:20:39;;;;;;;5.82;3.08;;;17.50;87.20;;;;;;5078746;28;20028;-73
2023/06/17 00:23:06;;;;;;;6.32;3.08;;;17.50;87.60;;;;;;5064954;28;20084;-73
2023/06/17 00:25:32;;;;;;;7.15;3.30;;;17.30;88.90;;;;;;5065064;28;20062;-73
2023/06/17 00:27:57;;;;;;;4.88;2.65;;;17.10;90.10;;;;;;5068162;28;20115;-73
2023/06/17 00:30:23;;;;;;;5.82;3.30;;;16.90;90.30;;;;;;5063886;28;20099;-73
2023/06/17 00:32:49;;;;;;;7.93;3.08;;;16.70;90.00;;;;;;5065437;28;20487;-73
2023/06/17 00:35:14;;;;;;;6.15;3.30;;;16.80;89.40;;;;;;5063052;28;20074;-73
2023/06/17 00:37:40;;;;;;;4.57;2.58;;;17.00;89.20;;;;;;5066065;28;20043;-73
2023/06/17 00:40:08;;;;;;;8.40;3.88;;;17.00;88.40;;;;;;5066694;28;20039;-73
2023/06/17 00:42:34;;;;;;;5.60;2.92;;;17.10;88.40;;;;;;5063638;28;20028;-73
2023/06/17 00:45:00;;;;;;;5.50;3.22;;;17.10;88.30;;;;;;5062256;28;20032;-73
2023/06/17 00:47:26;;;;;;;5.40;3.30;;;17.20;88.50;;;;;;5063295;28;20028;-73
2023/06/17 00:49:53;;;;;;;5.75;3.53;;;16.90;89.50;;;;;;5066525;28;20040;-73
2023/06/17 00:52:20;;;;;;;6.50;2.80;;;16.80;90.10;;;;;;5071352;28;20027;-71
2023/06/17 00:54:45;;;;;;;5.85;3.35;;;16.90;89.00;;;;;;5072986;28;20027;-74
2023/06/17 00:57:15;;;;;;;8.07;3.47;;;16.70;90.30;;;;;;5074786;28;20047;-73
2023/06/17 00:59:43;;;;;;;6.57;3.30;;;16.50;90.30;;;;;;5071427;28;20033;-74
2023/06/17 01:02:10;;;;;;;7.32;2.80;;;16.70;89.50;;;;;;5080813;28;20028;-73
2023/06/17 01:04:42;;;;;;;5.22;2.90;;;16.90;89.60;;;;;;5077640;28;20359;-73
2023/06/17 01:07:23;;;;;;;7.15;3.50;;;16.90;89.10;;;;;;5066836;28;20386;-73
2023/06/17 01:09:56;;;;;;;7.00;3.47;;;16.90;89.40;;;;;;5070694;28;20027;-73
2023/06/17 01:12:26;;;;;;;5.68;2.95;;;17.00;89.40;;;;;;5076558;28;20028;-73
2023/06/17 01:14:54;;;;;;;7.18;4.28;;;17.00;89.10;;;;;;5074443;28;20029;-73
2023/06/17 01:17:21;;;;;;;5.82;3.22;;;17.10;89.10;;;;;;5077558;28;20449;-73
2023/06/17 01:19:48;;;;;;;6.22;3.50;;;16.80;89.60;;;;;;5077669;28;20031;-74
2023/06/17 01:22:16;;;;;;;6.32;3.50;;;16.60;90.30;;;;;;5081067;28;20039;-73
2023/06/17 01:24:43;;;;;;;6.38;3.05;;;16.70;90.20;;;;;;5070836;28;20482;-73
2023/06/17 01:27:08;;;;;;;7.85;3.35;;;16.40;90.60;;;;;;5075235;28;20027;-73
2023/06/17 01:29:36;;;;;;;5.38;3.08;;;16.30;91.00;;;;;;5079023;28;20507;-73
2023/06/17 01:32:05;;;;;;;6.57;3.00;;;16.30;91.00;;;;;;5082169;28;20050;-73
2023/06/17 01:34:53;;;;;;;4.97;2.88;;;16.50;90.30;;;;;;5074516;28;20052;-73
2023/06/17 01:37:28;;;;;;;6.07;3.20;;;16.80;90.10;;;;;;5069564;28;20158;-73
2023/06/17 01:39:57;;;;;;;6.85;3.17;;;16.60;90.10;;;;;;5083525;28;20055;-73
2023/06/17 01:42:33;;;;;;;5.30;2.80;;;16.50;90.30;;;;;;5079552;28;20389;-73
2023/06/17 01:45:05;;;;;;;4.93;2.95;;;16.50;90.60;;;;;;5080934;28;20108;-73
2023/06/17 01:47:32;;;;;;;6.07;3.78;;;16.50;90.60;;;;;;5075279;28;20029;-73
2023/06/17 01:49:59;;;;;;;5.03;2.90;;;16.30;90.80;;;;;;5073225;28;20035;-73
2023/06/17 01:52:26;;;;;;;5.70;3.55;;;16.20;91.10;;;;;;5085159;28;20063;-73
2023/06/17 01:54:51;;;;;;;7.00;2.90;;;16.40;90.80;;;;;;5083613;28;20394;-73
2023/06/17 01:57:17;;;;;;;5.40;2.83;;;16.70;90.30;;;;;;5079804;28;20048;-73
2023/06/17 01:59:43;;;;;;;7.03;3.17;;;16.90;90.10;;;;;;5080943;28;20039;-74
2023/06/17 02:02:09;;;;;;;5.28;2.90;;;16.60;90.30;;;;;;5077755;28;20089;-73
2023/06/17 02:04:35;;;;;;;5.40;2.95;;;16.20;90.90;;;;;;5075454;28;20024;-73
2023/06/17 02:07:01;;;;;;;5.22;3.03;;;16.00;91.20;;;;;;5071478;28;20082;-73
2023/06/17 02:09:27;;;;;;;6.65;3.15;;;15.90;91.50;;;;;;5085539;28;21323;-73
2023/06/17 02:11:52;;;;;;;8.15;2.58;;;15.80;91.60;;;;;;5080025;28;20417;-73
2023/06/17 02:14:18;;;;;;;5.93;3.42;;;15.90;91.70;;;;;;5088344;28;20028;-73
2023/06/17 02:16:46;;;;;;;7.72;3.60;;;15.80;91.60;;;;;;5077243;28;20052;-73
2023/06/17 02:19:12;;;;;;;6.07;3.03;;;15.90;91.50;;;;;;5082702;28;20116;-73
2023/06/17 02:21:38;;;;;;;6.07;3.20;;;15.90;91.50;;;;;;5081185;28;20028;-73
2023/06/17 02:24:04;;;;;;;7.45;3.25;;;16.20;91.00;;;;;;5084342;28;20032;-73
2023/06/17 02:26:31;;;;;;;6.25;3.33;;;16.10;91.00;;;;;;5077065;28;20032;-73
2023/06/17 02:28:57;;;;;;;5.47;3.15;;;15.90;91.40;;;;;;5089268;28;20020;-73
2023/06/17 02:31:22;;;;;;;6.50;2.95;;;16.00;91.30;;;;;;5079218;28;20530;-73
2023/06/17 02:33:48;;;;;;;7.38;3.55;;;15.90;91.30;;;;;;5080401;28;20066;-72
2023/06/17 02:36:14;;;;;;;6.82;3.17;;;15.90;91.20;;;;;;5079104;28;20162;-73
2023/06/17 02:38:41;;;;;;;6.57;2.83;;;15.90;91.50;;;;;;5079920;28;20077;-73
2023/06/17 02:41:06;;;;;;;6.13;3.15;;;15.90;91.50;;;;;;5076858;28;20052;-72
2023/06/17 02:43:32;;;;;;;5.75;3.10;;;16.00;91.30;;;;;;5074019;28;20478;-73
2023/06/17 02:45:58;;;;;;;7.10;4.18;;;15.90;91.40;;;;;;5080092;28;20467;-73
2023/06/17 02:48:23;;;;;;;6.43;3.40;;;15.90;91.70;;;;;;5078535;28;20024;-73
2023/06/17 02:50:51;;;;;;;6.90;3.53;;;16.00;91.30;;;;;;5076921;28;20028;-73
2023/06/17 02:53:16;;;;;;;7.85;3.38;;;16.00;91.60;;;;;;5074256;28;20027;-73
2023/06/17 02:55:45;;;;;;;6.63;3.10;;;15.90;91.80;;;;;;5083184;28;20028;-73
2023/06/17 02:58:15;;;;;;;6.88;3.55;;;15.90;91.80;;;;;;5078531;28;20039;-73
2023/06/17 03:00:42;;;;;;;6.72;3.45;;;15.90;91.70;;;;;;5083333;28;20386;-73
2023/06/17 03:03:09;;;;;;;8.27;4.10;;;15.60;92.10;;;;;;5071551;28;20513;-72
2023/06/17 03:05:37;;;;;;;7.03;3.80;;;15.60;92.20;;;;;;5082269;28;20105;-73
2023/06/17 03:08:06;;;;;;;7.30;4.00;;;15.70;92.10;;;;;;5071172;28;20016;-73
2023/06/17 03:10:32;;;;;;;7.65;3.42;;;15.70;92.20;;;;;;5073148;28;20037;-72
2023/06/17 03:13:00;;;;;;;6.38;3.90;;;15.40;92.50;;;;;;5076696;28;20023;-73
2023/06/17 03:15:26;;;;;;;6.15;2.97;;;15.20;92.90;;;;;;5074470;28;20060;-73
2023/06/17 03:17:52;;;;;;;7.40;3.40;;;15.30;92.80;;;;;;5077088;28;20028;-73
2023/06/17 03:20:18;;;;;;;5.28;3.40;;;15.70;92.20;;;;;;5072830;28;20031;-72
2023/06/17 03:22:44;;;;;;;8.70;3.55;;;15.60;92.30;;;;;;5073783;28;20821;-73
2023/06/17 03:25:11;;;;;;;6.45;3.10;;;15.20;93.10;;;;;;5071905;28;20028;-73
2023/06/17 03:27:36;;;;;;;7.15;3.40;;;15.50;92.20;;;;;;5083787;28;20020;-74
2023/06/17 03:30:03;;;;;;;7.80;3.70;;;15.40;92.50;;;;;;5070523;28;20039;-75
2023/06/17 03:32:28;;;;;;;7.45;3.67;;;15.10;93.00;;;;;;5076857;28;20104;-75
2023/06/17 03:34:54;;;;;;;10.13;4.00;;;15.00;93.30;;;;;;5070679;28;20107;-75
2023/06/17 03:37:20;;;;;;;5.25;2.90;;;14.80;93.50;;;;;;5068755;28;20048;-75
2023/06/17 03:39:46;;;;;;;5.53;3.38;;;15.20;93.00;;;;;;5069782;28;20102;-74
2023/06/17 03:42:16;;;;;;;6.53;3.53;;;15.00;93.70;;;;;;5076209;28;20501;-75
2023/06/17 03:44:42;;;;;;;8.00;3.38;;;14.90;93.70;;;;;;5066027;28;20033;-75
2023/06/17 03:47:07;;;;;;;5.80;3.08;;;15.10;93.30;;;;;;5074642;28;20024;-74
2023/06/17 03:49:33;;;;;;;6.63;3.40;;;15.30;93.00;;;;;;5071605;28;20038;-74
2023/06/17 03:51:59;;;;;;;6.95;4.15;;;15.50;92.80;;;;;;5070878;28;20382;-75
2023/06/17 03:54:25;;;;;;;7.50;3.40;;;15.50;93.10;;;;;;5067268;28;20105;-75
2023/06/17 03:56:51;;;;;;;6.07;3.20;;;15.40;93.20;;;;;;5073337;28;20631;-75
2023/06/17 03:59:17;;;;;;;8.40;3.40;;;15.40;93.10;;;;;;5076120;28;20021;-75
2023/06/17 04:01:43;;;;;;;6.30;3.83;;;15.60;93.20;;;;;;5067060;28;20028;-75
2023/06/17 04:04:09;;;;;;;6.10;3.60;;;15.60;92.90;;;;;;5079978;28;20031;-74
2023/06/17 04:06:35;;;;;;;10.13;3.40;;;15.60;93.00;;;;;;5083017;28;20100;-75
2023/06/17 04:09:02;;;;;;;6.38;3.50;;;15.70;93.10;;;;;;5075447;28;20067;-75
2023/06/17 04:11:30;;;;;;;5.63;3.25;;;15.60;93.20;;;;;;5073215;28;20051;-75
2023/06/17 04:13:56;;;;;;;8.93;3.70;;;15.80;93.10;;;;;;5070257;28;20031;-75
2023/06/17 04:16:23;;;;;;;7.05;3.63;;;15.70;93.80;;;;;;5079861;28;20036;-74
2023/06/17 04:18:49;;;;;;;7.95;3.88;;;15.60;94.10;;;;;;5064737;28;20111;-74
2023/06/17 04:21:14;;;;;;;6.40;3.03;;;15.60;93.60;;;;;;5067082;28;20493;-74
2023/06/17 04:23:40;;;;;;;5.75;3.25;;;15.60;93.60;;;;;;5076580;28;20031;-74
2023/06/17 04:26:06;;;;;;;5.70;2.72;;;15.50;93.90;;;;;;5080366;28;20025;-75
2023/06/17 04:28:32;;;;;;;9.13;4.13;;;15.50;93.80;;;;;;5072051;28;20028;-74
2023/06/17 04:31:01;;;;;;;9.02;3.55;;;15.50;93.80;;;;;;5075757;28;20032;-75
2023/06/17 04:33:30;;;;;;;6.97;3.30;;;15.60;94.30;;;;;;5073288;28;20062;-74
2023/06/17 04:35:56;;;;;;;7.20;4.10;;;15.70;93.70;;;;;;5067311;28;20032;-74
2023/06/17 04:38:23;;;;;;;6.63;3.22;;;15.80;93.60;;;;;;5073384;28;20114;-75
2023/06/17 04:40:52;;;;;;;5.65;3.53;;;15.70;93.80;;;;;;5076094;28;20031;-75
2023/06/17 04:43:20;;;;;;;7.38;4.22;;;15.70;94.10;;;;;;5070008;28;20032;-75
2023/06/17 04:45:46;;;;;;;8.20;3.90;;;15.60;94.10;;;;;;5077221;28;20027;-75
2023/06/17 04:48:11;;;;;;;6.97;3.13;;;15.50;94.20;;;;;;5067332;28;20021;-74
2023/06/17 04:50:37;;;;;;;5.38;3.17;;;15.60;94.40;;;;;;5064110;28;20020;-74
2023/06/17 04:53:06;;;;;;;6.22;3.65;;;15.40;94.70;;;;;;5074598;28;20612;-74
2023/06/17 04:55:35;;;;;;;6.97;3.85;;;15.10;95.40;;;;;;5068348;28;20036;-74
2023/06/17 04:58:04;;;;;;;6.32;4.00;;;14.90;95.80;;;;;;5077470;28;20047;-74
2023/06/17 05:00:30;;;;;;;6.55;3.55;;;15.20;95.20;;;;;;5071669;28;20033;-75
2023/06/17 05:02:57;;;;;;;5.75;3.88;;;15.20;95.20;;;;;;5072534;28;20457;-74
2023/06/17 05:05:23;;;;;;;8.63;4.18;;;15.40;95.00;;;;;;5076769;28;20091;-74
2023/06/17 05:07:48;;;;;;;8.18;3.85;;;15.40;95.20;;;;;;5066785;28;20032;-74
2023/06/17 05:10:14;;;;;;;8.02;3.88;;;15.50;95.10;;;;;;5069205;28;20534;-74
2023/06/17 05:12:43;;;;;;;7.18;3.67;;;15.50;95.00;;;;;;5068034;28;20028;-73
2023/06/17 05:15:09;;;;;;;8.30;3.50;;;15.70;94.50;;;;;;5071083;28;20513;-72
2023/06/17 05:17:34;;;;;;;8.13;3.95;;;15.60;94.90;;;;;;5079372;28;20436;-73
2023/06/17 05:20:00;;;;;;;6.53;3.88;;;15.80;94.70;;;;;;5085932;28;20061;-73
2023/06/17 05:22:26;;;;;;;6.97;4.05;;;15.70;95.40;;;;;;5080195;28;20036;-73
2023/06/17 05:24:52;;;;;;;5.63;3.25;;;15.50;95.50;;;;;;5072369;28;20044;-73
2023/06/17 05:27:18;;;;;;;5.68;3.25;;;15.50;96.00;;;;;;5073761;28;20032;-72
2023/06/17 05:29:43;;;;;;;6.03;3.17;;;15.60;95.50;;;;;;5073821;28;20040;-73
2023/06/17 05:32:09;;;;;;;8.60;3.50;;;15.60;96.00;;;;;;5078195;28;20043;-73
2023/06/17 05:34:34;;;;;;;5.85;3.33;;;15.70;95.90;;;;;;5082370;28;20526;-74
2023/06/17 05:37:00;;;;;;;6.25;3.28;;;15.70;96.70;;;;;;5071982;28;20036;-73
2023/06/17 05:39:26;;;;;;;7.10;3.90;;;15.80;95.70;;;;;;5077987;28;20048;-72
2023/06/17 05:41:51;;;;;;;5.32;3.55;;;15.90;95.70;;;;;;5076186;28;20028;-72
2023/06/17 05:44:17;;;;;;;7.47;3.75;;;16.10;95.50;;;;;;5082014;28;20024;-71
2023/06/17 05:46:43;;;;;;;8.35;3.67;;;16.10;95.70;;;;;;5073040;28;20479;-73
2023/06/17 05:49:08;;;;;;;7.38;4.32;;;16.10;95.70;;;;;;5069855;28;20058;-74
2023/06/17 05:51:34;;;;;;;8.65;3.67;;;16.10;96.40;;;;;;5069363;28;20517;-73
2023/06/17 05:54:00;;;;;;;8.90;4.25;;;16.10;96.40;;;;;;5071233;28;20031;-73
2023/06/17 05:56:27;;;;;;;6.50;3.63;;;16.20;96.40;;;;;;5073800;28;20048;-74
2023/06/17 05:58:53;;;;;;;8.23;3.78;;;16.40;96.80;;;;;;5073616;28;20024;-73
2023/06/17 06:01:18;;;;;;;10.15;3.70;;;16.50;96.90;;;;;;5075047;28;20035;-73
2023/06/17 06:03:44;;;;;;;6.43;3.83;;;16.40;97.50;;;;;;5067814;28;21111;-73
2023/06/17 06:06:10;;;;;;;7.68;3.88;;;16.40;96.50;;;;;;5066134;28;20033;-73
2023/06/17 06:08:35;;;;;;;6.57;4.07;;;16.40;96.00;;;;;;5070304;28;20077;-73
2023/06/17 06:11:01;;;;;;;6.80;4.25;;;16.50;96.60;;;;;;5066076;28;20040;-73
2023/06/17 06:13:28;;;;;;;9.25;4.20;;;16.60;96.80;;;;;;5069697;28;20107;-73
2023/06/17 06:15:55;;;;;;;7.75;4.00;;;16.60;96.50;;;;;;5072299;28;21033;-73
2023/06/17 06:18:20;;;;;;;9.35;4.65;;;16.60;96.10;;;;;;5067409;28;20037;-73
2023/06/17 06:20:46;;;;;;;8.23;4.30;;;16.70;97.30;;;;;;5069646;28;20081;-71
2023/06/17 06:23:12;;;;;;;9.00;4.45;;;16.70;97.20;;;;;;5068225;28;20039;-71
2023/06/17 06:25:38;;;;;;;10.55;4.65;;;16.70;97.00;;;;;;5066110;28;20028;-71
2023/06/17 06:28:05;;;;;;;10.52;4.30;;;16.70;97.10;;;;;;5073097;28;20097;-73
2023/06/17 06:30:31;;;;;;;7.63;3.83;;;16.80;96.70;;;;;;5070577;28;20016;-73
2023/06/17 06:32:58;;;;;;;7.75;4.15;;;16.90;95.70;;;;;;5064972;28;20124;-74
2023/06/17 06:35:24;;;;;;;10.63;4.13;;;17.00;94.90;;;;;;5070518;28;20028;-74
2023/06/17 06:37:50;;;;;;;6.75;3.72;;;17.00;94.90;;;;;;5065527;28;20559;-73
2023/06/17 06:40:16;;;;;;;8.70;4.53;;;17.10;93.60;;;;;;5071677;28;20028;-73
2023/06/17 06:42:41;;;;;;;6.50;3.95;;;17.20;94.50;;;;;;5066019;28;20036;-73
2023/06/17 06:45:07;;;;;;;7.88;4.10;;;17.30;94.80;;;;;;5071073;28;20515;-75
2023/06/17 06:47:33;;;;;;;7.13;3.75;;;17.40;95.70;;;;;;5072621;28;20032;-75
2023/06/17 06:49:58;;;;;;;15.23;4.95;;;17.50;94.80;;;;;;5067847;28;20024;-74
2023/06/17 06:52:24;;;;;;;10.88;4.30;;;17.60;95.10;;;;;;5071927;28;20078;-74
2023/06/17 06:54:50;;;;;;;8.55;4.18;;;17.60;95.40;;;;;;5087647;28;20033;-73
2023/06/17 06:57:16;;;;;;;7.63;4.05;;;17.80;95.10;;;;;;5067612;28;20055;-73
2023/06/17 06:59:42;;;;;;;10.45;4.50;;;18.00;94.10;;;;;;5075952;28;20028;-73
2023/06/17 07:02:08;;;;;;;6.40;4.00;;;18.30;93.90;;;;;;5070005;28;20035;-73
2023/06/17 07:04:33;;;;;;;7.57;4.20;;;18.50;92.80;;;;;;5074182;28;20077;-73
2023/06/17 07:06:59;;;;;;;7.80;4.20;;;18.70;92.70;;;;;;5073211;28;20020;-73
2023/06/17 07:09:25;;;;;;;6.25;4.10;;;18.90;92.60;;;;;;5076564;28;20036;-73
2023/06/17 07:11:50;;;;;;;11.02;4.68;;;19.00;91.70;;;;;;5063537;28;20530;-73
2023/06/17 07:14:16;;;;;;;7.95;4.68;;;19.10;91.20;;;;;;5069634;28;20028;-73
2023/06/17 07:16:42;;;;;;;7.65;4.07;;;19.50;91.40;;;;;;5078170;28;20044;-73
2023/06/17 07:19:07;;;;;;;7.75;4.13;;;19.80;91.00;;;;;;5072599;28;20085;-71
2023/06/17 07:21:33;;;;;;;7.20;4.40;;;19.90;91.10;;;;;;5064931;28;20494;-71
2023/06/17 07:23:59;;;;;;;6.53;4.35;;;20.10;92.00;;;;;;5068981;28;20024;-73
2023/06/17 07:26:25;;;;;;;9.18;4.90;;;20.20;91.00;;;;;;5074080;28;20028;-71
2023/06/17 07:28:51;;;;;;;8.98;3.97;;;20.70;90.90;;;;;;5069232;28;20028;-74
2023/06/17 07:31:16;;;;;;;8.65;4.10;;;21.20;90.40;;;;;;5068453;28;20024;-74
2023/06/17 07:33:42;;;;;;;9.00;5.13;;;22.00;90.20;;;;;;5076982;28;20023;-74
2023/06/17 07:36:08;;;;;;;6.38;4.05;;;22.70;89.00;;;;;;5068553;28;20092;-71
2023/06/17 07:38:33;;;;;;;7.95;4.22;;;22.90;87.50;;;;;;5072450;28;20032;-74
2023/06/17 07:41:00;;;;;;;7.28;3.30;;;23.50;85.00;;;;;;5072941;28;20093;-74
2023/06/17 07:43:25;;;;;;;6.93;3.95;;;24.30;84.80;;;;;;5075385;28;20043;-71
2023/06/17 07:45:51;;;;;;;10.48;4.28;;;24.00;84.10;;;;;;5074475;28;20043;-72
2023/06/17 07:48:17;;;;;;;6.93;4.30;;;23.30;85.30;;;;;;5066311;28;20017;-74
2023/06/17 07:50:43;;;;;;;6.95;4.47;;;23.20;85.90;;;;;;5073657;28;20518;-72
2023/06/17 07:53:09;;;;;;;6.70;4.22;;;22.40;87.00;;;;;;5073662;28;20069;-72
2023/06/17 07:55:35;;;;;;;8.55;4.65;;;22.90;87.40;;;;;;5065184;28;20067;-72
2023/06/17 07:58:01;;;;;;;7.47;4.32;;;23.30;86.70;;;;;;5080309;28;20067;-72
2023/06/17 08:00:27;;;;;;;7.55;4.32;;;23.30;86.00;;;;;;5077814;28;20059;-72
2023/06/17 08:02:55;;;;;;;6.22;4.10;;;23.00;85.90;;;;;;5073904;28;20040;-72
2023/06/17 08:05:20;;;;;;;7.70;4.15;;;23.00;87.30;;;;;;5076911;28;20036;-71
2023/06/17 08:07:46;;;;;;;5.97;4.07;;;22.80;87.30;;;;;;5082761;28;20097;-72
2023/06/17 08:10:12;;;;;;;8.48;4.50;;;22.70;87.90;;;;;;5072290;28;20039;-72
2023/06/17 08:12:38;;;;;;;6.68;4.15;;;22.90;86.80;;;;;;5073382;28;20052;-72
2023/06/17 08:15:05;;;;;;;7.82;4.65;;;22.70;84.80;;;;;;5071015;28;20028;-72
2023/06/17 08:17:31;;;;;;;5.50;3.83;;;22.70;86.20;;;;;;5080183;28;20127;-73
2023/06/17 08:19:57;;;;;;;7.95;4.15;;;22.90;86.10;;;;;;5072059;28;21922;-72
2023/06/17 08:22:22;;;;;;;6.63;3.95;;;23.00;86.30;;;;;;5065035;28;20565;-72
2023/06/17 08:24:48;;;;;;;9.55;4.68;;;23.30;85.80;;;;;;5074221;28;21158;-72
2023/06/17 08:27:14;;;;;;;6.10;3.95;;;23.40;87.30;;;;;;5070705;28;20032;-73
2023/06/17 08:29:40;;;;;;;6.97;4.45;;;23.00;87.00;;;;;;5080099;28;20036;-73
2023/06/17 08:32:06;;;;;;;6.50;4.43;;;23.00;84.60;;;;;;5083799;28;20548;-72
2023/06/17 08:34:32;;;;;;;6.43;3.75;;;23.00;88.70;;;;;;5075052;28;20024;-72
2023/06/17 08:37:03;;;;;;;6.50;4.50;;;23.10;88.40;;;;;;5069555;28;20040;-72
2023/06/17 08:39:30;;;;;;;6.13;4.40;;;23.30;87.10;;;;;;5078525;28;20059;-73
2023/06/17 08:41:56;;;;;;;6.38;4.38;;;23.40;86.50;;;;;;5070672;28;20493;-72
2023/06/17 08:44:24;;;;;;;7.10;4.40;;;23.60;86.50;;;;;;5077159;28;20123;-72
2023/06/17 08:46:53;;;;;;;6.35;4.00;;;23.30;84.10;;;;;;5074722;28;20032;-74
2023/06/17 08:49:21;;;;;;;6.50;3.90;;;23.40;85.40;;;;;;5080125;28;20020;-75
2023/06/17 08:51:49;;;;;;;10.63;4.75;;;22.50;87.70;;;;;;5072643;28;20479;-74
2023/06/17 08:54:15;;;;;;;10.65;5.03;;;23.20;88.40;;;;;;5071782;28;20025;-74
2023/06/17 08:56:43;;;;;;;6.88;3.92;;;23.60;87.30;;;;;;5074591;28;20048;-75
2023/06/17 08:59:10;;;;;;;7.80;4.70;;;23.50;87.50;;;;;;5086928;28;20048;-71
2023/06/17 09:01:38;;;;;;;8.13;4.63;;;23.70;86.80;;;;;;5084589;28;20077;-72
2023/06/17 09:04:04;;;;;;;6.10;3.47;;;24.10;88.50;;;;;;5071174;28;20032;-73
2023/06/17 09:06:31;;;;;;;6.95;3.72;;;23.80;85.10;;;;;;5070189;28;20032;-71
2023/06/17 09:08:58;;;;;;;12.43;5.35;;;23.80;85.90;;;;;;5076987;28;20024;-71
2023/06/17 09:11:25;;;;;;;9.57;4.22;;;24.00;85.80;;;;;;5075571;28;20106;-72
2023/06/17 09:13:52;;;;;;;8.57;4.28;;;24.50;84.40;;;;;;5070519;28;20044;-71
2023/06/17 09:16:27;;;;;;;6.22;3.65;;;24.30;84.60;;;;;;5069327;28;20081;-71
2023/06/17 09:18:57;;;;;;;10.23;3.97;;;24.10;83.20;;;;;;5071799;28;20114;-71
2023/06/17 09:21:24;;;;;;;7.60;4.28;;;24.40;84.10;;;;;;5074099;28;20406;-71
2023/06/17 09:24:00;;;;;;;6.20;4.07;;;24.10;83.30;;;;;;5072074;28;20048;-73
2023/06/17 09:26:31;;;;;;;7.80;4.70;;;24.40;85.30;;;;;;5084630;28;20486;-72
2023/06/17 09:29:05;;;;;;;8.43;4.00;;;24.70;83.10;;;;;;5072675;28;20031;-74
2023/06/17 09:31:31;;;;;;;10.45;4.80;;;24.40;82.60;;;;;;5084913;28;20038;-73
2023/06/17 09:34:02;;;;;;;5.68;3.63;;;24.70;84.20;;;;;;5086682;28;20043;-73
2023/06/17 09:36:29;;;;;;;6.28;4.35;;;24.90;82.20;;;;;;5087180;28;20044;-73
2023/06/17 09:38:57;;;;;;;9.35;4.78;;;24.40;83.20;;;;;;5086183;28;20063;-73
2023/06/17 09:41:24;;;;;;;7.75;3.97;;;24.90;84.70;;;;;;5087315;28;20498;-73
2023/06/17 09:43:53;;;;;;;8.68;4.20;;;25.10;84.80;;;;;;5080789;28;20049;-73
2023/06/17 09:46:35;;;;;;;7.18;4.38;;;25.50;85.70;;;;;;5073282;28;20111;-73
2023/06/17 09:49:06;;;;;;;7.03;3.97;;;25.60;84.30;;;;;;5071945;28;20024;-73
2023/06/17 09:51:38;;;;;;;6.97;4.22;;;25.40;84.30;;;;;;5071962;28;20025;-73
2023/06/17 09:54:07;;;;;;;6.45;3.88;;;25.40;84.00;;;;;;5074621;28;20025;-73
2023/06/17 09:56:34;;;;;;;6.57;4.40;;;25.50;83.30;;;;;;5074544;28;20067;-74
2023/06/17 09:59:00;;;;;;;6.75;4.40;;;25.80;81.20;;;;;;5071100;28;20028;-73
2023/06/17 10:01:30;;;;;;;6.85;4.68;;;25.80;82.40;;;;;;5077150;28;20035;-73
2023/06/17 10:04:00;;;;;;;6.50;3.78;;;26.00;84.50;;;;;;5077279;28;20032;-73
2023/06/17 10:06:29;;;;;;;10.05;4.25;;;26.30;84.70;;;;;;5075404;28;20064;-74
2023/06/17 10:08:56;;;;;;;8.77;4.53;;;26.50;84.80;;;;;;5082920;28;20028;-73
2023/06/17 10:11:24;;;;;;;7.93;4.45;;;26.60;81.40;;;;;;5078236;28;20035;-73
2023/06/17 10:13:56;;;;;;;6.95;4.45;;;26.80;83.20;;;;;;5076533;28;20031;-73
2023/06/17 10:16:25;;;;;;;6.70;4.50;;;27.00;82.10;;;;;;5076497;28;20028;-73
2023/06/17 10:18:53;;;;;;;6.60;4.35;;;26.90;82.50;;;;;;5075756;28;20510;-73
2023/06/17 10:21:20;;;;;;;8.52;4.40;;;27.10;82.40;;;;;;5074435;28;20486;-73
2023/06/17 10:23:47;;;;;;;7.95;4.82;;;27.40;81.20;;;;;;5081051;28;20024;-74
2023/06/17 10:26:13;;;;;;;6.72;4.53;;;27.30;79.50;;;;;;5080703;28;20027;-73
2023/06/17 10:28:59;;;;;;;8.27;4.95;;;26.80;79.30;;;;;;5074135;28;20028;-73
2023/06/17 10:31:37;;;;;;;7.00;4.00;;;27.20;81.70;;;;;;5072113;28;20031;-73
2023/06/17 10:34:03;;;;;;;10.23;4.20;;;27.10;82.40;;;;;;5076781;28;20772;-73
2023/06/17 10:36:29;;;;;;;6.78;4.35;;;27.00;79.50;;;;;;5078602;28;20043;-73
2023/06/17 10:39:12;;;;;;;10.77;4.57;;;26.60;78.10;;;;;;5074905;28;20028;-74
2023/06/17 10:41:38;;;;;;;6.97;4.88;;;27.00;78.40;;;;;;5078908;28;20036;-74
2023/06/17 10:44:34;;;;;;;12.07;5.10;;;27.30;78.80;;;;;;5077304;28;20517;-73
2023/06/17 10:47:02;;;;;;;13.73;5.15;;;27.20;79.10;;;;;;5075881;28;20032;-73
2023/06/17 10:49:39;;;;;;;41.33;6.35;;;27.20;81.10;;;;;;5076216;28;20043;-73
2023/06/17 10:52:05;;;;;;;9.15;4.63;;;27.40;80.20;;;;;;5075852;28;20027;-73
2023/06/17 10:54:31;;;;;;;7.18;4.47;;;27.60;81.70;;;;;;5078267;28;20039;-74
2023/06/17 10:57:01;;;;;;;8.30;4.80;;;27.20;78.20;;;;;;5074055;28;20052;-74
2023/06/17 10:59:29;;;;;;;7.95;5.20;;;27.30;79.50;;;;;;5077304;28;20051;-74
2023/06/17 11:02:06;;;;;;;8.98;4.38;;;27.70;79.30;;;;;;5074356;28;20025;-74
2023/06/17 11:04:36;;;;;;;7.10;4.80;;;28.00;79.10;;;;;;5072908;28;20028;-73
2023/06/17 11:07:04;;;;;;;10.57;4.68;;;28.20;80.70;;;;;;5075281;28;20028;-74
2023/06/17 11:09:31;;;;;;;7.97;4.60;;;27.70;76.20;;;;;;5076625;28;20446;-74
2023/06/17 11:11:59;;;;;;;9.18;4.55;;;27.60;79.30;;;;;;5074899;28;20021;-74
2023/06/17 11:14:27;;;;;;;7.78;4.28;;;27.80;79.20;;;;;;5073686;28;20036;-73
2023/06/17 11:16:53;;;;;;;9.10;4.50;;;27.70;74.00;;;;;;5072194;28;20054;-74
2023/06/17 11:19:18;;;;;;;10.50;5.03;;;27.80;78.90;;;;;;5077932;28;20489;-73
2023/06/17 11:21:44;;;;;;;15.77;4.90;;;28.20;77.70;;;;;;5073489;28;20024;-75
2023/06/17 11:24:11;;;;;;;8.45;5.05;;;28.30;75.00;;;;;;5076028;28;20035;-73
2023/06/17 11:26:37;;;;;;;9.35;5.22;;;28.40;75.60;;;;;;5076052;28;20040;-73
2023/06/17 11:29:04;;;;;;;9.73;4.90;;;28.40;75.00;;;;;;5074314;28;20029;-74
2023/06/17 11:31:37;;;;;;;9.20;5.25;;;28.40;75.50;;;;;;5074641;28;24017;-74
2023/06/17 11:34:02;;;;;;;8.30;4.70;;;28.60;76.80;;;;;;5073710;28;20028;-75
2023/06/17 11:36:29;;;;;;;7.78;5.03;;;28.50;76.10;;;;;;5077581;28;20024;-74
2023/06/17 11:38:55;;;;;;;8.35;4.85;;;28.70;77.80;;;;;;5077479;28;20073;-73
2023/06/17 11:41:25;;;;;;;7.20;4.90;;;28.80;73.60;;;;;;5077235;28;20036;-76
2023/06/17 11:43:51;;;;;;;8.60;4.35;;;28.70;76.20;;;;;;5075533;28;20167;-75
2023/06/17 11:46:21;;;;;;;8.48;4.32;;;28.40;72.00;;;;;;5077953;28;20027;-75
2023/06/17 11:48:47;;;;;;;7.35;4.72;;;28.40;75.20;;;;;;5073121;28;20817;-74
2023/06/17 11:51:15;;;;;;;6.43;4.15;;;28.70;74.60;;;;;;5076590;28;20027;-74
2023/06/17 11:53:45;;;;;;;9.35;4.65;;;28.90;74.30;;;;;;5072190;28;20028;-74
2023/06/17 11:56:13;;;;;;;7.68;4.60;;;29.00;72.20;;;;;;5067185;28;20550;-73
2023/06/17 11:58:40;;;;;;;6.55;4.15;;;29.10;73.00;;;;;;5072528;28;20047;-74
2023/06/17 12:01:09;;;;;;;8.70;5.20;;;29.00;71.60;;;;;;5071465;28;20040;-75
2023/06/17 12:03:36;;;;;;;10.70;5.07;;;29.10;70.70;;;;;;5071312;28;20021;-75
2023/06/17 12:06:02;;;;;;;7.47;4.03;;;28.90;67.00;;;;;;5070536;28;20094;-75
2023/06/17 12:08:36;;;;;;;7.82;5.05;;;29.00;68.00;;;;;;5072975;28;20071;-71
2023/06/17 12:11:06;;;;;;;;;;;29.30;69.80;;;;;;5073226;28;20032;-73
2023/06/17 12:13:39;;;;;;;7.28;4.60;;;29.20;69.40;;;;;;5073348;28;19908;-73
2023/06/17 12:16:21;;;;;;;7.47;4.13;;;29.30;69.10;;;;;;5070829;28;20055;-72
2023/06/17 12:18:51;;;;;;;8.60;4.72;;;29.00;65.90;;;;;;5073499;28;20059;-72
2023/06/17 12:21:21;;;;;;;5.60;3.90;;;29.40;68.70;;;;;;5071296;28;20024;-72
2023/06/17 12:23:53;;;;;;;8.65;5.05;;;29.50;70.20;;;;;;5072806;28;20175;-72
2023/06/17 12:26:19;;;;;;;10.85;5.00;;;29.30;67.50;;;;;;5076112;28;20016;-72
2023/06/17 12:28:45;;;;;;;7.53;4.55;;;29.30;66.80;;;;;;5073832;28;20028;-72
2023/06/17 12:31:15;;;;;;;7.50;4.60;;;29.40;68.00;;;;;;5074238;28;20020;-71
2023/06/17 12:33:41;;;;;;;6.53;4.72;;;29.60;69.60;;;;;;5069320;28;20115;-72
2023/06/17 12:36:07;;;;;;;9.77;4.35;;;29.50;68.40;;;;;;5074878;28;20130;-72
2023/06/17 12:38:33;;;;;;;15.68;4.85;;;29.30;65.70;;;;;;5072447;28;20040;-73
2023/06/17 12:41:00;;;;;;;7.30;4.43;;;29.60;68.30;;;;;;5074058;28;20543;-72
2023/06/17 12:43:28;;;;;;;7.80;4.10;;;29.70;68.70;;;;;;5077675;28;20036;-72
2023/06/17 12:45:54;;;;;;;9.13;4.47;;;29.80;69.70;;;;;;5074501;28;20035;-72